createdAt,value
2018-02-18T00:00:59.867Z,99.99
2018-02-18T00:01:59.904Z,99.99
2018-02-18T00:02:59.931Z,99.99
2018-02-18T00:03:59.953Z,99.99
2018-02-18T00:05:00.088Z,99.99
2018-02-18T00:06:00.007Z,99.99
2018-02-18T00:07:00.036Z,99.99
2018-02-18T00:08:00.069Z,99.99
2018-02-18T00:09:00.098Z,99.99
2018-02-18T00:10:00.118Z,99.99
2018-02-18T00:11:00.148Z,99.99
2018-02-18T00:12:00.506Z,99.99
2018-02-18T00:13:00.204Z,99.99
2018-02-18T00:14:00.235Z,99.99
2018-02-18T00:15:00.256Z,99.99
2018-02-18T00:16:00.286Z,99.99
2018-02-18T00:17:00.315Z,99.99
2018-02-18T00:18:00.342Z,99.99
2018-02-18T00:19:00.373Z,99.99
2018-02-18T00:20:00.399Z,99.99
2018-02-18T00:21:00.426Z,99.99
2018-02-18T00:22:00.535Z,99.99
2018-02-18T00:23:00.485Z,99.99
2018-02-18T00:24:00.512Z,99.99
2018-02-18T00:25:00.544Z,99.99
2018-02-18T00:26:00.580Z,99.99
2018-02-18T00:27:00.598Z,99.99
2018-02-18T00:28:00.620Z,99.99
2018-02-18T00:29:00.649Z,99.99
2018-02-18T00:30:00.675Z,99.99
2018-02-18T00:31:00.707Z,99.99
2018-02-18T00:32:00.733Z,99.99
2018-02-18T00:33:00.762Z,99.99
2018-02-18T00:34:00.836Z,99.99
2018-02-18T00:35:00.826Z,99.99
2018-02-18T00:36:00.849Z,99.99
2018-02-18T00:37:00.877Z,99.99
2018-02-18T00:38:00.935Z,99.99
2018-02-18T00:39:00.927Z,99.99
2018-02-18T00:40:00.955Z,99.99
2018-02-18T00:41:00.986Z,99.99
2018-02-18T00:42:01.016Z,99.99
2018-02-18T00:43:01.048Z,99.99
2018-02-18T00:44:01.067Z,99.99
2018-02-18T00:45:01.100Z,99.99
2018-02-18T00:46:01.123Z,99.99
2018-02-18T00:47:01.154Z,99.99
2018-02-18T00:48:01.181Z,99.99
2018-02-18T00:49:01.210Z,99.99
2018-02-18T00:50:01.237Z,99.99
2018-02-18T00:51:01.368Z,99.99
2018-02-18T00:52:01.292Z,99.99
2018-02-18T00:53:01.319Z,99.99
2018-02-18T00:54:01.349Z,99.99
2018-02-18T00:55:01.374Z,99.99
2018-02-18T00:56:01.403Z,99.99
2018-02-18T00:57:01.435Z,99.99
2018-02-18T00:58:01.569Z,99.99
2018-02-18T00:59:01.484Z,99.99
2018-02-18T01:00:01.521Z,99.99
2018-02-18T01:01:01.547Z,99.99
2018-02-18T01:02:01.569Z,99.99
2018-02-18T01:03:01.602Z,99.99
2018-02-18T01:04:01.634Z,99.99
2018-02-18T01:05:01.658Z,99.99
2018-02-18T01:06:01.686Z,99.99
2018-02-18T01:07:01.711Z,99.99
2018-02-18T01:08:01.741Z,99.99
2018-02-18T01:09:01.765Z,99.99
2018-02-18T01:10:01.800Z,99.99
2018-02-18T01:11:01.819Z,99.99
2018-02-18T01:12:01.852Z,99.99
2018-02-18T01:13:01.876Z,99.99
2018-02-18T01:14:01.905Z,99.99
2018-02-18T01:15:01.979Z,99.99
2018-02-18T01:16:01.963Z,99.99
2018-02-18T01:17:01.996Z,99.99
2018-02-18T01:18:02.013Z,99.99
2018-02-18T01:19:02.042Z,99.99
2018-02-18T01:20:02.072Z,99.99
2018-02-18T01:21:02.098Z,99.99
2018-02-18T01:22:02.156Z,99.99
2018-02-18T01:23:02.154Z,99.99
2018-02-18T01:24:02.184Z,99.99
2018-02-18T01:25:02.212Z,99.99
2018-02-18T01:26:02.239Z,99.99
2018-02-18T01:27:02.266Z,99.99
2018-02-18T01:28:02.295Z,99.99
2018-02-18T01:29:02.323Z,99.99
2018-02-18T01:30:02.348Z,99.99
2018-02-18T01:31:02.376Z,99.99
2018-02-18T01:32:02.404Z,99.99
2018-02-18T01:33:02.435Z,99.99
2018-02-18T01:34:02.518Z,99.99
2018-02-18T01:35:02.490Z,99.99
2018-02-18T01:36:02.518Z,99.99
2018-02-18T01:37:02.545Z,99.99
2018-02-18T01:38:02.612Z,99.99
2018-02-18T01:39:02.601Z,99.99
2018-02-18T01:40:02.627Z,99.99
2018-02-18T01:41:02.655Z,99.99
2018-02-18T01:42:02.683Z,99.99
2018-02-18T01:43:02.712Z,99.99
2018-02-18T01:44:02.743Z,99.99
2018-02-18T01:45:02.769Z,99.99
2018-02-18T01:46:02.796Z,99.99
2018-02-18T01:47:02.822Z,99.99
2018-02-18T01:48:02.850Z,99.99
2018-02-18T01:49:02.879Z,99.99
2018-02-18T01:50:02.906Z,99.99
2018-02-18T01:51:02.949Z,99.99
2018-02-18T01:52:02.963Z,99.99
2018-02-18T01:53:02.989Z,99.99
2018-02-18T01:54:03.018Z,99.99
2018-02-18T01:55:03.047Z,99.99
2018-02-18T01:56:03.072Z,99.99
2018-02-18T01:57:03.101Z,99.99
2018-02-18T01:58:03.128Z,99.99
2018-02-18T01:59:03.158Z,99.99
2018-02-18T02:00:03.191Z,99.99
2018-02-18T02:01:03.219Z,99.99
2018-02-18T02:02:03.238Z,99.99
2018-02-18T02:03:03.268Z,99.99
2018-02-18T02:04:03.298Z,99.99
2018-02-18T02:05:03.323Z,99.99
2018-02-18T02:06:03.363Z,99.99
2018-02-18T02:07:03.378Z,99.99
2018-02-18T02:08:03.428Z,99.99
2018-02-18T02:09:03.435Z,99.99
2018-02-18T02:10:03.461Z,99.99
2018-02-18T02:11:03.491Z,99.99
2018-02-18T02:12:03.518Z,99.99
2018-02-18T02:13:03.548Z,99.99
2018-02-18T02:14:03.575Z,99.99
2018-02-18T02:15:03.602Z,99.99
2018-02-18T02:16:03.629Z,99.99
2018-02-18T02:17:03.658Z,99.99
2018-02-18T02:18:03.684Z,99.99
2018-02-18T02:19:03.713Z,99.99
2018-02-18T02:20:03.740Z,99.99
2018-02-18T02:21:03.771Z,99.99
2018-02-18T02:22:03.795Z,99.99
2018-02-18T02:23:03.824Z,99.99
2018-02-18T02:24:03.855Z,99.99
2018-02-18T02:25:03.880Z,99.99
2018-02-18T02:26:03.906Z,99.99
2018-02-18T02:27:03.942Z,99.99
2018-02-18T02:28:03.969Z,99.99
2018-02-18T02:29:03.992Z,99.99
2018-02-18T02:30:04.023Z,99.99
2018-02-18T02:31:04.047Z,99.99
2018-02-18T02:32:04.076Z,99.99
2018-02-18T02:33:04.118Z,99.99
2018-02-18T02:34:04.132Z,99.99
2018-02-18T02:35:04.163Z,99.99
2018-02-18T02:36:04.184Z,99.99
2018-02-18T02:37:04.214Z,99.99
2018-02-18T02:38:04.243Z,99.99
2018-02-18T02:39:04.273Z,99.99
2018-02-18T02:40:04.297Z,99.99
2018-02-18T02:41:04.326Z,99.99
2018-02-18T02:42:04.353Z,99.99
2018-02-18T02:43:04.378Z,99.99
2018-02-18T02:44:04.418Z,99.99
2018-02-18T02:45:04.437Z,99.99
2018-02-18T02:46:04.463Z,99.99
2018-02-18T02:47:04.494Z,99.99
2018-02-18T02:48:04.526Z,99.99
2018-02-18T02:49:04.546Z,99.99
2018-02-18T02:50:04.575Z,99.99
2018-02-18T02:51:04.604Z,99.99
2018-02-18T02:52:04.630Z,99.99
2018-02-18T02:53:04.657Z,99.99
2018-02-18T02:54:04.686Z,99.99
2018-02-18T02:55:04.714Z,99.99
2018-02-18T02:56:04.740Z,99.99
2018-02-18T02:57:04.794Z,99.99
2018-02-18T02:58:04.797Z,99.99
2018-02-18T02:59:04.825Z,99.99
2018-02-18T03:00:04.851Z,99.99
2018-02-18T03:01:04.953Z,99.99
2018-02-18T03:02:04.905Z,99.99
2018-02-18T03:03:04.939Z,99.99
2018-02-18T03:04:04.961Z,99.99
2018-02-18T03:05:04.994Z,99.99
2018-02-18T03:06:05.017Z,99.99
2018-02-18T03:07:05.047Z,99.99
2018-02-18T03:08:05.077Z,99.99
2018-02-18T03:09:05.101Z,99.99
2018-02-18T03:10:05.130Z,99.99
2018-02-18T03:11:05.160Z,99.99
2018-02-18T03:12:05.188Z,99.99
2018-02-18T03:13:05.224Z,99.99
2018-02-18T03:14:05.240Z,99.99
2018-02-18T03:15:05.267Z,99.99
2018-02-18T03:16:05.301Z,99.99
2018-02-18T03:17:05.323Z,99.99
2018-02-18T03:18:05.352Z,99.99
2018-02-18T03:19:05.377Z,99.99
2018-02-18T03:20:05.408Z,99.99
2018-02-18T03:21:05.435Z,99.99
2018-02-18T03:22:05.461Z,99.99
2018-02-18T03:23:05.489Z,99.99
2018-02-18T03:24:05.521Z,99.99
2018-02-18T03:25:05.550Z,99.99
2018-02-18T03:26:05.574Z,99.99
2018-02-18T03:27:05.600Z,99.99
2018-02-18T03:28:05.633Z,99.99
2018-02-18T03:29:05.661Z,99.99
2018-02-18T03:30:05.714Z,99.99
2018-02-18T03:31:05.716Z,99.99
2018-02-18T03:32:05.738Z,99.99
2018-02-18T03:33:05.769Z,99.99
2018-02-18T03:34:05.800Z,99.99
2018-02-18T03:35:05.824Z,99.99
2018-02-18T03:36:05.850Z,99.99
2018-02-18T03:37:05.896Z,99.99
2018-02-18T03:38:05.907Z,99.99
2018-02-18T03:39:05.935Z,99.99
2018-02-18T03:40:05.965Z,99.99
2018-02-18T03:41:05.989Z,99.99
2018-02-18T03:42:06.021Z,99.99
2018-02-18T03:43:06.049Z,99.99
2018-02-18T03:44:06.072Z,99.99
2018-02-18T03:45:06.103Z,99.99
2018-02-18T03:46:06.133Z,99.99
2018-02-18T03:47:06.162Z,99.99
2018-02-18T03:48:06.187Z,99.99
2018-02-18T03:49:06.214Z,99.99
2018-02-18T03:50:06.244Z,99.99
2018-02-18T03:51:06.272Z,99.99
2018-02-18T03:52:06.301Z,99.99
2018-02-18T03:53:06.328Z,99.99
2018-02-18T03:54:06.469Z,99.99
2018-02-18T03:55:06.384Z,99.99
2018-02-18T03:56:06.414Z,99.99
2018-02-18T03:57:06.440Z,99.99
2018-02-18T03:58:06.468Z,99.99
2018-02-18T03:59:06.499Z,99.99
2018-02-18T04:00:06.525Z,99.99
2018-02-18T04:01:06.552Z,99.99
2018-02-18T04:02:06.579Z,99.99
2018-02-18T04:03:06.607Z,99.99
2018-02-18T04:04:06.663Z,99.99
2018-02-18T04:05:06.666Z,99.99
2018-02-18T04:06:06.708Z,99.99
2018-02-18T04:07:06.721Z,99.99
2018-02-18T04:08:06.749Z,99.99
2018-02-18T04:09:06.776Z,99.99
2018-02-18T04:10:06.806Z,99.99
2018-02-18T04:11:06.835Z,99.99
2018-02-18T04:12:06.864Z,99.99
2018-02-18T04:13:06.894Z,99.99
2018-02-18T04:14:06.917Z,99.99
2018-02-18T04:15:06.956Z,99.99
2018-02-18T04:16:06.986Z,99.99
2018-02-18T04:17:07.004Z,99.99
2018-02-18T04:18:07.034Z,99.99
2018-02-18T04:19:07.059Z,99.99
2018-02-18T04:20:07.087Z,99.99
2018-02-18T04:21:07.118Z,99.99
2018-02-18T04:22:07.172Z,99.99
2018-02-18T04:23:07.188Z,99.99
2018-02-18T04:24:07.206Z,99.99
2018-02-18T04:25:07.230Z,99.99
2018-02-18T04:26:07.259Z,99.99
2018-02-18T04:27:07.286Z,99.99
2018-02-18T04:28:07.318Z,99.99
2018-02-18T04:29:07.347Z,99.99
2018-02-18T04:30:07.375Z,99.99
2018-02-18T04:31:07.399Z,99.99
2018-02-18T04:32:07.430Z,99.99
2018-02-18T04:33:07.456Z,99.99
2018-02-18T04:34:07.488Z,99.99
2018-02-18T04:35:07.518Z,99.99
2018-02-18T04:36:07.543Z,99.99
2018-02-18T04:37:07.573Z,99.99
2018-02-18T04:38:07.598Z,99.99
2018-02-18T04:39:07.629Z,99.99
2018-02-18T04:40:07.687Z,99.99
2018-02-18T04:41:07.688Z,99.99
2018-02-18T04:42:07.718Z,99.99
2018-02-18T04:43:07.741Z,99.99
2018-02-18T04:44:07.771Z,99.99
2018-02-18T04:45:07.814Z,99.99
2018-02-18T04:46:07.827Z,99.99
2018-02-18T04:47:07.957Z,99.99
2018-02-18T04:48:07.885Z,99.99
2018-02-18T04:49:07.914Z,99.99
2018-02-18T04:50:07.939Z,99.99
2018-02-18T04:51:07.969Z,99.99
2018-02-18T04:52:08.001Z,99.99
2018-02-18T04:53:08.030Z,99.99
2018-02-18T04:54:08.054Z,99.99
2018-02-18T04:55:08.081Z,99.99
2018-02-18T04:56:08.119Z,99.99
2018-02-18T04:57:08.141Z,99.99
2018-02-18T04:58:08.170Z,99.99
2018-02-18T04:59:08.200Z,99.99
2018-02-18T05:00:08.225Z,99.99
2018-02-18T05:01:08.255Z,99.99
2018-02-18T05:02:08.279Z,99.99
2018-02-18T05:03:08.310Z,99.99
2018-02-18T05:04:08.340Z,99.99
2018-02-18T05:05:08.370Z,99.99
2018-02-18T05:06:08.396Z,99.99
2018-02-18T05:07:08.428Z,99.99
2018-02-18T05:08:08.454Z,99.99
2018-02-18T05:09:08.485Z,99.99
2018-02-18T05:10:08.513Z,99.99
2018-02-18T05:11:08.547Z,99.99
2018-02-18T05:12:08.605Z,99.99
2018-02-18T05:13:08.598Z,99.99
2018-02-18T05:14:08.622Z,99.99
2018-02-18T05:15:08.652Z,99.99
2018-02-18T05:16:08.787Z,99.99
2018-02-18T05:17:08.712Z,99.99
2018-02-18T05:18:08.738Z,99.99
2018-02-18T05:19:08.766Z,99.99
2018-02-18T05:20:08.794Z,99.99
2018-02-18T05:21:08.827Z,99.99
2018-02-18T05:22:08.852Z,99.99
2018-02-18T05:23:08.881Z,99.99
2018-02-18T05:24:08.913Z,99.99
2018-02-18T05:25:08.937Z,99.99
2018-02-18T05:26:08.966Z,99.99
2018-02-18T05:27:08.992Z,99.99
2018-02-18T05:28:09.023Z,99.99
2018-02-18T05:29:09.054Z,99.99
2018-02-18T05:30:09.079Z,99.99
2018-02-18T05:31:09.107Z,99.99
2018-02-18T05:32:09.137Z,99.99
2018-02-18T05:33:09.225Z,99.99
2018-02-18T05:34:09.194Z,99.99
2018-02-18T05:35:09.224Z,99.99
2018-02-18T05:36:09.250Z,99.99
2018-02-18T05:37:09.280Z,99.99
2018-02-18T05:38:09.307Z,99.99
2018-02-18T05:39:09.336Z,99.99
2018-02-18T05:40:09.364Z,99.99
2018-02-18T05:41:09.395Z,99.99
2018-02-18T05:42:09.420Z,99.99
2018-02-18T05:43:09.557Z,99.99
2018-02-18T05:44:09.502Z,99.99
2018-02-18T05:45:09.508Z,99.99
2018-02-18T05:46:09.537Z,99.99
2018-02-18T05:47:09.565Z,99.99
2018-02-18T05:48:09.595Z,99.99
2018-02-18T05:49:09.621Z,99.99
2018-02-18T05:50:09.652Z,99.99
2018-02-18T05:51:09.679Z,99.99
2018-02-18T05:52:09.707Z,99.99
2018-02-18T05:53:09.737Z,99.99
2018-02-18T05:54:09.766Z,99.99
2018-02-18T05:55:09.798Z,99.99
2018-02-18T05:56:09.822Z,99.99
2018-02-18T05:57:09.850Z,99.99
2018-02-18T05:58:09.876Z,99.99
2018-02-18T05:59:09.917Z,99.99
2018-02-18T06:00:09.937Z,99.99
2018-02-18T06:01:09.969Z,99.99
2018-02-18T06:02:10.050Z,99.99
2018-02-18T06:03:10.024Z,99.99
2018-02-18T06:04:10.051Z,99.99
2018-02-18T06:05:10.088Z,99.99
2018-02-18T06:06:10.110Z,99.99
2018-02-18T06:07:10.147Z,99.99
2018-02-18T06:08:10.190Z,99.99
2018-02-18T06:09:10.193Z,99.99
2018-02-18T06:10:10.222Z,99.99
2018-02-18T06:11:10.252Z,99.99
2018-02-18T06:12:10.282Z,99.99
2018-02-18T06:13:10.309Z,99.99
2018-02-18T06:14:10.339Z,99.99
2018-02-18T06:15:10.365Z,99.99
2018-02-18T06:16:10.394Z,99.99
2018-02-18T06:17:10.421Z,99.99
2018-02-18T06:18:10.451Z,99.99
2018-02-18T06:19:10.509Z,99.99
2018-02-18T06:20:10.510Z,99.99
2018-02-18T06:21:10.540Z,99.99
2018-02-18T06:22:10.566Z,99.99
2018-02-18T06:23:10.593Z,99.99
2018-02-18T06:24:10.622Z,99.99
2018-02-18T06:25:10.652Z,99.99
2018-02-18T06:26:10.696Z,99.99
2018-02-18T06:27:10.710Z,99.99
2018-02-18T06:28:10.736Z,99.99
2018-02-18T06:29:10.767Z,99.99
2018-02-18T06:30:10.794Z,99.99
2018-02-18T06:31:10.829Z,99.99
2018-02-18T06:32:10.851Z,99.99
2018-02-18T06:33:10.882Z,99.99
2018-02-18T06:34:10.906Z,99.99
2018-02-18T06:35:10.939Z,99.99
2018-02-18T06:36:10.967Z,99.99
2018-02-18T06:37:10.995Z,99.99
2018-02-18T06:38:11.044Z,99.99
2018-02-18T06:39:11.053Z,99.99
2018-02-18T06:40:11.083Z,99.99
2018-02-18T06:41:11.107Z,99.99
2018-02-18T06:42:11.141Z,99.99
2018-02-18T06:43:11.227Z,99.99
2018-02-18T06:44:11.195Z,99.99
2018-02-18T06:45:11.237Z,99.99
2018-02-18T06:46:11.253Z,99.99
2018-02-18T06:47:11.285Z,99.99
2018-02-18T06:48:11.310Z,99.99
2018-02-18T06:49:11.343Z,99.99
2018-02-18T06:50:11.364Z,99.99
2018-02-18T06:51:11.393Z,99.99
2018-02-18T06:52:11.424Z,99.99
2018-02-18T06:53:11.450Z,99.99
2018-02-18T06:54:11.479Z,99.99
2018-02-18T06:55:11.507Z,99.99
2018-02-18T06:56:11.536Z,99.99
2018-02-18T06:57:11.564Z,99.99
2018-02-18T06:58:11.594Z,99.99
2018-02-18T06:59:11.620Z,99.99
2018-02-18T07:00:11.650Z,99.99
2018-02-18T07:01:11.680Z,99.99
2018-02-18T07:02:11.730Z,99.99
2018-02-18T07:03:11.735Z,99.99
2018-02-18T07:04:11.770Z,99.99
2018-02-18T07:05:11.800Z,99.99
2018-02-18T07:06:11.821Z,99.99
2018-02-18T07:07:11.852Z,99.99
2018-02-18T07:08:11.879Z,99.99
2018-02-18T07:09:12.063Z,99.99
2018-02-18T07:10:11.948Z,99.99
2018-02-18T07:11:11.966Z,99.99
2018-02-18T07:12:11.997Z,99.99
2018-02-18T07:13:12.022Z,99.99
2018-02-18T07:14:12.051Z,99.99
2018-02-18T07:15:12.080Z,99.99
2018-02-18T07:16:12.106Z,99.99
2018-02-18T07:17:12.137Z,99.99
2018-02-18T07:18:12.166Z,99.99
2018-02-18T07:19:12.198Z,99.99
2018-02-18T07:20:12.223Z,99.99
2018-02-18T07:21:12.252Z,99.99
2018-02-18T07:22:12.279Z,99.99
2018-02-18T07:23:12.308Z,99.99
2018-02-18T07:24:12.338Z,99.99
2018-02-18T07:25:12.391Z,99.99
2018-02-18T07:26:12.464Z,99.99
2018-02-18T07:27:12.431Z,99.99
2018-02-18T07:28:12.451Z,99.99
2018-02-18T07:29:12.484Z,99.99
2018-02-18T07:30:12.509Z,99.99
2018-02-18T07:31:12.541Z,99.99
2018-02-18T07:32:12.570Z,99.99
2018-02-18T07:33:12.600Z,99.99
2018-02-18T07:34:12.625Z,99.99
2018-02-18T07:35:12.655Z,99.99
2018-02-18T07:36:12.682Z,99.99
2018-02-18T07:37:12.712Z,99.99
2018-02-18T07:38:12.740Z,99.99
2018-02-18T07:39:12.770Z,99.99
2018-02-18T07:40:12.798Z,99.99
2018-02-18T07:41:12.830Z,99.99
2018-02-18T07:42:12.856Z,99.99
2018-02-18T07:43:12.886Z,99.99
2018-02-18T07:44:12.914Z,99.99
2018-02-18T07:45:12.975Z,99.99
2018-02-18T07:46:12.970Z,99.99
2018-02-18T07:47:13.000Z,99.99
2018-02-18T07:48:13.032Z,99.99
2018-02-18T07:49:13.061Z,99.99
2018-02-18T07:50:13.086Z,99.99
2018-02-18T07:51:13.118Z,99.99
2018-02-18T07:52:13.146Z,99.99
2018-02-18T07:53:13.178Z,99.99
2018-02-18T07:54:13.202Z,99.99
2018-02-18T07:55:13.232Z,99.99
2018-02-18T07:56:13.261Z,99.99
2018-02-18T07:57:13.292Z,99.99
2018-02-18T07:58:13.320Z,99.99
2018-02-18T07:59:13.352Z,99.99
2018-02-18T08:00:13.378Z,99.99
2018-02-18T08:01:13.407Z,99.99
2018-02-18T08:02:13.446Z,99.99
2018-02-18T08:03:13.470Z,99.99
2018-02-18T08:04:13.494Z,99.99
2018-02-18T08:05:13.522Z,99.99
2018-02-18T08:06:13.560Z,99.99
2018-02-18T08:07:13.579Z,99.99
2018-02-18T08:08:13.610Z,99.99
2018-02-18T08:09:13.638Z,99.99
2018-02-18T08:10:13.667Z,99.99
2018-02-18T08:11:13.696Z,99.99
2018-02-18T08:12:13.725Z,99.99
2018-02-18T08:13:13.755Z,99.99
2018-02-18T08:14:13.782Z,99.99
2018-02-18T08:15:13.818Z,99.99
2018-02-18T08:16:13.844Z,99.99
2018-02-18T08:17:13.869Z,99.99
2018-02-18T08:18:13.900Z,99.99
2018-02-18T08:19:13.936Z,99.99
2018-02-18T08:20:13.957Z,99.71
2018-02-18T08:21:13.989Z,99.23
2018-02-18T08:22:14.028Z,99.28
2018-02-18T08:23:14.045Z,98.33
2018-02-18T08:24:14.075Z,98.10
2018-02-18T08:25:14.106Z,98.28
2018-02-18T08:26:14.162Z,98.76
2018-02-18T08:27:14.161Z,98.66
2018-02-18T08:28:14.191Z,98.57
2018-02-18T08:29:14.221Z,98.38
2018-02-18T08:30:14.284Z,99.04
2018-02-18T08:31:14.279Z,99.23
2018-02-18T08:32:14.309Z,98.95
2018-02-18T08:33:14.340Z,99.14
2018-02-18T08:34:14.368Z,99.61
2018-02-18T08:35:14.398Z,99.38
2018-02-18T08:36:14.428Z,99.66
2018-02-18T08:37:14.457Z,99.57
2018-02-18T08:38:14.487Z,99.09
2018-02-18T08:39:14.516Z,98.62
2018-02-18T08:40:14.542Z,98.62
2018-02-18T08:41:14.573Z,98.52
2018-02-18T08:42:14.606Z,97.96
2018-02-18T08:43:14.634Z,97.96
2018-02-18T08:44:14.660Z,98.14
2018-02-18T08:45:14.690Z,98.14
2018-02-18T08:46:14.719Z,98.14
2018-02-18T08:47:14.748Z,98.24
2018-02-18T08:48:14.789Z,98.43
2018-02-18T08:49:14.810Z,98.33
2018-02-18T08:50:14.843Z,98.33
2018-02-18T08:51:14.870Z,98.33
2018-02-18T08:52:14.900Z,97.77
2018-02-18T08:53:14.929Z,97.67
2018-02-18T08:54:14.963Z,97.49
2018-02-18T08:55:14.990Z,97.58
2018-02-18T08:56:15.015Z,97.20
2018-02-18T08:57:15.055Z,96.64
2018-02-18T08:58:15.089Z,96.92
2018-02-18T08:59:15.106Z,96.83
2018-02-18T09:00:15.135Z,97.01
2018-02-18T09:01:15.165Z,96.73
2018-02-18T09:02:15.196Z,95.78
2018-02-18T09:03:15.223Z,96.26
2018-02-18T09:04:15.253Z,96.26
2018-02-18T09:05:15.289Z,96.07
2018-02-18T09:06:15.319Z,95.97
2018-02-18T09:07:15.343Z,96.12
2018-02-18T09:08:15.383Z,96.50
2018-02-18T09:09:15.405Z,96.59
2018-02-18T09:10:15.435Z,95.55
2018-02-18T09:11:15.462Z,94.74
2018-02-18T09:12:15.495Z,94.08
2018-02-18T09:13:15.523Z,94.46
2018-02-18T09:14:15.551Z,95.21
2018-02-18T09:15:15.581Z,95.07
2018-02-18T09:16:15.612Z,95.64
2018-02-18T09:17:15.656Z,95.45
2018-02-18T09:18:15.672Z,95.64
2018-02-18T09:19:15.702Z,95.26
2018-02-18T09:20:15.733Z,95.64
2018-02-18T09:21:15.762Z,95.36
2018-02-18T09:22:15.792Z,95.26
2018-02-18T09:23:15.823Z,95.36
2018-02-18T09:24:15.854Z,95.26
2018-02-18T09:25:15.884Z,95.45
2018-02-18T09:26:15.922Z,95.17
2018-02-18T09:27:15.946Z,95.26
2018-02-18T09:28:15.975Z,95.17
2018-02-18T09:29:16.004Z,95.17
2018-02-18T09:30:16.032Z,95.55
2018-02-18T09:31:16.065Z,95.36
2018-02-18T09:32:16.097Z,95.45
2018-02-18T09:33:16.144Z,94.98
2018-02-18T09:34:16.184Z,94.51
2018-02-18T09:35:16.188Z,93.75
2018-02-18T09:36:16.217Z,94.23
2018-02-18T09:37:16.245Z,93.56
2018-02-18T09:38:16.278Z,93.37
2018-02-18T09:39:16.306Z,93.56
2018-02-18T09:40:16.338Z,93.18
2018-02-18T09:41:16.377Z,93.37
2018-02-18T09:42:16.397Z,93.18
2018-02-18T09:43:16.426Z,94.13
2018-02-18T09:44:16.471Z,93.66
2018-02-18T09:45:16.491Z,93.94
2018-02-18T09:46:16.516Z,94.13
2018-02-18T09:47:16.546Z,93.66
2018-02-18T09:48:16.577Z,93.37
2018-02-18T09:49:16.605Z,93.66
2018-02-18T09:50:16.640Z,94.04
2018-02-18T09:51:16.675Z,93.37
2018-02-18T09:52:16.696Z,93.47
2018-02-18T09:53:16.727Z,93.75
2018-02-18T09:54:16.762Z,93.28
2018-02-18T09:55:16.790Z,93.37
2018-02-18T09:56:16.819Z,93.51
2018-02-18T09:57:16.852Z,93.99
2018-02-18T09:58:16.892Z,93.23
2018-02-18T09:59:16.916Z,92.47
2018-02-18T10:00:16.948Z,92.10
2018-02-18T10:01:16.974Z,92.66
2018-02-18T10:02:17.005Z,92.94
2018-02-18T10:03:17.034Z,93.32
2018-02-18T10:04:17.063Z,93.23
2018-02-18T10:05:17.096Z,93.80
2018-02-18T10:06:17.124Z,92.85
2018-02-18T10:07:17.155Z,93.04
2018-02-18T10:08:17.193Z,92.10
2018-02-18T10:09:17.237Z,91.72
2018-02-18T10:10:17.387Z,91.15
2018-02-18T10:11:17.283Z,91.05
2018-02-18T10:12:17.311Z,90.44
2018-02-18T10:13:17.340Z,90.15
2018-02-18T10:14:17.398Z,90.15
2018-02-18T10:15:17.399Z,90.44
2018-02-18T10:16:17.433Z,90.30
2018-02-18T10:17:17.462Z,90.20
2018-02-18T10:18:17.493Z,90.15
2018-02-18T10:19:17.534Z,90.15
2018-02-18T10:20:17.554Z,90.01
2018-02-18T10:21:17.585Z,91.24
2018-02-18T10:22:17.621Z,91.72
2018-02-18T10:23:17.651Z,92.10
2018-02-18T10:24:17.682Z,92.47
2018-02-18T10:25:17.749Z,92.38
2018-02-18T10:26:17.739Z,92.00
2018-02-18T10:27:17.832Z,92.47
2018-02-18T10:28:17.804Z,92.29
2018-02-18T10:29:17.836Z,92.85
2018-02-18T10:30:17.863Z,92.85
2018-02-18T10:31:17.895Z,92.94
2018-02-18T10:32:17.924Z,93.42
2018-02-18T10:33:17.959Z,93.80
2018-02-18T10:34:18.073Z,93.75
2018-02-18T10:35:18.017Z,94.13
2018-02-18T10:36:18.046Z,94.79
2018-02-18T10:37:18.105Z,95.36
2018-02-18T10:38:18.109Z,95.26
2018-02-18T10:39:18.139Z,95.64
2018-02-18T10:40:18.176Z,95.45
2018-02-18T10:41:18.202Z,96.40
2018-02-18T10:42:18.233Z,96.12
2018-02-18T10:43:18.263Z,96.21
2018-02-18T10:44:18.298Z,96.21
2018-02-18T10:45:18.326Z,96.59
2018-02-18T10:46:18.356Z,96.31
2018-02-18T10:47:18.384Z,96.12
2018-02-18T10:48:18.417Z,96.59
2018-02-18T10:49:18.446Z,96.69
2018-02-18T10:50:18.475Z,97.06
2018-02-18T10:51:18.505Z,97.82
2018-02-18T10:52:18.545Z,98.01
2018-02-18T10:53:18.564Z,98.29
2018-02-18T10:54:18.602Z,98.01
2018-02-18T10:55:18.636Z,98.86
2018-02-18T10:56:18.672Z,98.96
2018-02-18T10:57:18.684Z,99.52
2018-02-18T10:58:18.720Z,99.52
2018-02-18T10:59:18.751Z,99.15
2018-02-18T11:00:18.775Z,99.24
2018-02-18T11:01:18.805Z,98.86
2018-02-18T11:02:18.835Z,98.48
2018-02-18T11:03:18.868Z,98.48
2018-02-18T11:04:18.896Z,98.20
2018-02-18T11:05:18.926Z,98.77
2018-02-18T11:06:18.956Z,98.77
2018-02-18T11:07:18.989Z,98.96
2018-02-18T11:08:19.025Z,98.67
2018-02-18T11:09:19.048Z,98.58
2018-02-18T11:10:19.078Z,98.96
2018-02-18T11:11:19.106Z,98.29
2018-02-18T11:12:19.137Z,98.77
2018-02-18T11:13:19.166Z,98.58
2018-02-18T11:14:19.198Z,98.77
2018-02-18T11:15:19.233Z,98.77
2018-02-18T11:16:19.258Z,98.48
2018-02-18T11:17:19.302Z,98.77
2018-02-18T11:18:19.321Z,98.44
2018-02-18T11:19:19.362Z,98.44
2018-02-18T11:20:19.377Z,98.06
2018-02-18T11:21:19.407Z,98.63
2018-02-18T11:22:19.437Z,98.44
2018-02-18T11:23:19.482Z,98.72
2018-02-18T11:24:19.546Z,98.34
2018-02-18T11:25:19.540Z,98.53
2018-02-18T11:26:19.561Z,98.44
2018-02-18T11:27:19.599Z,98.53
2018-02-18T11:28:19.614Z,98.25
2018-02-18T11:29:19.649Z,98.34
2018-02-18T11:30:19.681Z,97.30
2018-02-18T11:31:19.714Z,96.92
2018-02-18T11:32:19.736Z,96.73
2018-02-18T11:33:19.770Z,96.16
2018-02-18T11:34:19.823Z,95.97
2018-02-18T11:35:19.823Z,95.97
2018-02-18T11:36:19.861Z,96.07
2018-02-18T11:37:19.891Z,96.31
2018-02-18T11:38:19.915Z,95.64
2018-02-18T11:39:19.949Z,95.45
2018-02-18T11:40:19.980Z,95.45
2018-02-18T11:41:20.029Z,95.55
2018-02-18T11:42:20.048Z,95.93
2018-02-18T11:43:20.083Z,95.55
2018-02-18T11:44:20.112Z,94.60
2018-02-18T11:45:20.130Z,93.56
2018-02-18T11:46:20.160Z,93.27
2018-02-18T11:47:20.191Z,92.52
2018-02-18T11:48:20.225Z,92.99
2018-02-18T11:49:20.252Z,92.14
2018-02-18T11:50:20.281Z,92.14
2018-02-18T11:51:20.314Z,92.52
2018-02-18T11:52:20.390Z,89.53
2018-02-18T11:53:20.372Z,87.83
2018-02-18T11:54:20.403Z,87.45
2018-02-18T11:55:20.435Z,87.92
2018-02-18T11:56:20.464Z,87.83
2018-02-18T11:57:20.496Z,87.83
2018-02-18T11:58:20.525Z,87.64
2018-02-18T11:59:20.562Z,87.45
2018-02-18T12:00:20.610Z,86.88
2018-02-18T12:01:20.619Z,86.69
2018-02-18T12:02:20.646Z,86.69
2018-02-18T12:03:20.683Z,85.84
2018-02-18T12:04:20.714Z,85.55
2018-02-18T12:05:20.745Z,85.74
2018-02-18T12:06:20.787Z,85.74
2018-02-18T12:07:20.804Z,86.31
2018-02-18T12:08:20.837Z,85.84
2018-02-18T12:09:20.867Z,86.41
2018-02-18T12:10:20.907Z,86.69
2018-02-18T12:11:20.924Z,86.60
2018-02-18T12:12:20.955Z,86.60
2018-02-18T12:13:20.987Z,86.03
2018-02-18T12:14:21.017Z,84.99
2018-02-18T12:15:21.048Z,84.70
2018-02-18T12:16:21.078Z,84.61
2018-02-18T12:17:21.151Z,84.51
2018-02-18T12:18:21.140Z,84.13
2018-02-18T12:19:21.172Z,84.23
2018-02-18T12:20:21.201Z,83.94
2018-02-18T12:21:21.238Z,84.42
2018-02-18T12:22:21.262Z,84.32
2018-02-18T12:23:21.295Z,83.85
2018-02-18T12:24:21.400Z,84.42
2018-02-18T12:25:21.357Z,85.17
2018-02-18T12:26:21.387Z,85.27
2018-02-18T12:27:21.417Z,86.22
2018-02-18T12:28:21.446Z,84.80
2018-02-18T12:29:21.477Z,85.13
2018-02-18T12:30:21.555Z,85.78
2018-02-18T12:31:21.540Z,85.88
2018-02-18T12:32:21.573Z,85.97
2018-02-18T12:33:21.607Z,85.60
2018-02-18T12:34:21.652Z,84.46
2018-02-18T12:35:21.663Z,84.46
2018-02-18T12:36:21.697Z,83.89
2018-02-18T12:37:21.727Z,82.09
2018-02-18T12:38:21.755Z,82.37
2018-02-18T12:39:21.788Z,82.66
2018-02-18T12:40:21.819Z,82.75
2018-02-18T12:41:21.934Z,82.37
2018-02-18T12:42:21.888Z,82.09
2018-02-18T12:43:21.913Z,81.71
2018-02-18T12:44:21.950Z,80.04
2018-02-18T12:45:21.979Z,79.72
2018-02-18T12:46:22.007Z,79.28
2018-02-18T12:47:22.079Z,78.53
2018-02-18T12:48:22.069Z,77.39
2018-02-18T12:49:22.102Z,76.73
2018-02-18T12:50:22.131Z,76.15
2018-02-18T12:51:22.163Z,77.01
2018-02-18T12:52:22.192Z,76.54
2018-02-18T12:53:22.354Z,76.63